Time;durP1;ratioP1;P1;durP2;ratioP2;P2;SDS_P1;SDS_P2;PMS_P1;PMS_P2;Temp;Humidity;BMP_temperature;BMP_pressure;BME280_temperature;BME280_humidity;BME280_pressure;Samples;Min_cycle;Max_cycle;Signal;HPM_P1;HPM_P2
2022/05/06 00:00:00;;;;;;;;;;;;;;;;;;339344;29;962;-72
2022/05/06 00:00:11;;;;;;;;;;;;;;;;;;339299;29;925;-72
2022/05/06 00:00:21;;;;;;;;;;;;;;;;;;339310;29;910;-72
2022/05/06 00:00:31;;;;;;;;;;;;;;;;;;339333;29;859;-72
2022/05/06 00:00:42;;;;;;;;;;;;;;;;;;339286;29;933;-72
2022/05/06 00:00:52;;;;;;;;;;;;;;;;;;339118;29;1003;-72
2022/05/06 00:01:03;;;;;;;;;;;;;;;;;;339251;29;1022;-72
2022/05/06 00:01:13;;;;;;;;;;;;;;;;;;339292;29;961;-72
2022/05/06 00:01:23;;;;;;;;;;;;;;;;;;341382;29;975;-72
2022/05/06 00:01:34;;;;;;;;;;;;;;;;;;341899;29;902;-72
2022/05/06 00:01:45;;;;;;;;;;;;;;;;;;341933;29;1012;-72
2022/05/06 00:01:55;;;;;;;;;;;;;;;;;;340484;29;1178;-72
2022/05/06 00:02:07;;;;;;;;;;;;;;;;;;340404;29;1175;-72
2022/05/06 00:02:17;;;;;;;;;;;;;;;;;;340543;29;922;-72
2022/05/06 00:02:27;;;;;;;;;;;;;;;;;;340536;29;932;-72
2022/05/06 00:02:37;;;;;;;;;;;;;;;;;;340520;29;1016;-72
2022/05/06 00:02:47;;;;;;;;;;;;;;;;;;340522;29;866;-72
2022/05/06 00:02:58;;;;;;;;;;;;;;;;;;339419;29;1898;-72
2022/05/06 00:03:08;;;;;;;;;;;;;;;;;;339239;29;1641;-72
2022/05/06 00:03:18;;;;;;;;;;;;;;;;;;339235;29;803;-72
2022/05/06 00:03:28;;;;;;;;;;;;;;;;;;339242;29;941;-72
2022/05/06 00:03:38;;;;;;;;;;;;;;;;;;339063;29;1344;-72
2022/05/06 00:03:49;;;;;;;;;;;;;;;;;;338427;29;1695;-72
2022/05/06 00:03:59;;;;;;;;;;;;;;;;;;339210;29;1130;-72
2022/05/06 00:04:10;;;;;;;;;;;;;;;;;;339339;29;906;-72
2022/05/06 00:04:20;;;;;;;;;;;;;;;;;;340419;29;1207;-72
2022/05/06 00:04:30;;;;;;;;;;;;;;;;;;340609;29;992;-72
2022/05/06 00:04:43;;;;;;;;;;;;;;;;;;340644;29;913;-72
2022/05/06 00:04:53;;;;;;;;;;;;;;;;;;340581;29;1056;-72
2022/05/06 00:05:04;;;;;;;;;;;;;;;;;;340541;29;847;-72
2022/05/06 00:05:14;;;;;;;;;;;;;;;;;;340640;29;933;-72
2022/05/06 00:05:25;;;;;;;;;;;;;;;;;;340654;29;918;-72
2022/05/06 00:05:35;;;;;;;;;;;;;;;;;;340617;29;938;-72
2022/05/06 00:05:45;;;;;;;;;;;;;;;;;;340594;29;965;-72
2022/05/06 00:05:55;;;;;;;;;;;;;;;;;;340647;29;961;-72
2022/05/06 00:06:05;;;;;;;;;;;;;;;;;;340645;29;1016;-72
2022/05/06 00:06:16;;;;;;;;;;;;;;;;;;340598;29;1129;-72
2022/05/06 00:06:28;;;;;;;;;;;;;;;;;;340498;29;1069;-72
2022/05/06 00:06:39;;;;;;;;;;;;;;;;;;340487;29;858;-72
2022/05/06 00:06:49;;;;;;;;;;;;;;;;;;340579;29;921;-71
2022/05/06 00:06:59;;;;;;;;;;;;;;;;;;340630;29;996;-72
2022/05/06 00:07:12;;;;;;;;;;;;;;;;;;340555;29;942;-72
2022/05/06 00:07:22;;;;;;;;;;;;;;;;;;340750;29;1333;-72
2022/05/06 00:07:33;;;;;;;;;;;;;;;;;;341818;29;1415;-72
2022/05/06 00:07:44;;;;;;;;;;;;;;;;;;339311;29;958;-72
2022/05/06 00:07:54;;;;;;;;;;;;;;;;;;339299;29;1030;-72
2022/05/06 00:08:04;;;;;;;;;;;;;;;;;;339345;29;934;-72
2022/05/06 00:08:14;;;;;;;;;;;;;;;;;;339091;29;1184;-72
2022/05/06 00:08:25;;;;;;;;;;;;;;;;;;339338;29;914;-72
2022/05/06 00:08:35;;;;;;;;;;;;;;;;;;339337;29;926;-72
2022/05/06 00:08:46;;;;;;;;;;;;;;;;;;339253;29;914;-72
2022/05/06 00:08:56;;;;;;;;;;;;;;;;;;339295;29;942;-72
2022/05/06 00:09:07;;;;;;;;;;;;;;;;;;339296;29;973;-71
2022/05/06 00:09:17;;;;;;;;;;;;;;;;;;339358;29;788;-72
2022/05/06 00:09:27;;;;;;;;;;;;;;;;;;339356;29;858;-72
2022/05/06 00:09:38;;;;;;;;;;;;;;;;;;339229;29;1017;-72
2022/05/06 00:09:48;;;;;;;;;;;;;;;;;;339337;29;895;-72
2022/05/06 00:10:01;;;;;;;;;;;;;;;;;;338997;29;1348;-72
2022/05/06 00:10:11;;;;;;;;;;;;;;;;;;339165;29;1342;-72
2022/05/06 00:10:21;;;;;;;;;;;;;;;;;;340601;29;942;-72
2022/05/06 00:10:31;;;;;;;;;;;;;;;;;;340181;29;1081;-72
2022/05/06 00:10:42;;;;;;;;;;;;;;;;;;339331;29;886;-72
2022/05/06 00:10:52;;;;;;;;;;;;;;;;;;339348;29;840;-72
2022/05/06 00:11:02;;;;;;;;;;;;;;;;;;339273;29;974;-72
2022/05/06 00:11:12;;;;;;;;;;;;;;;;;;339223;29;1025;-72
2022/05/06 00:11:23;;;;;;;;;;;;;;;;;;339321;29;922;-72
2022/05/06 00:11:33;;;;;;;;;;;;;;;;;;339270;29;1013;-72
2022/05/06 00:11:43;;;;;;;;;;;;;;;;;;339273;29;914;-72
2022/05/06 00:11:53;;;;;;;;;;;;;;;;;;339277;29;1029;-72
2022/05/06 00:12:04;;;;;;;;;;;;;;;;;;339277;29;917;-72
2022/05/06 00:12:17;;;;;;;;;;;;;;;;;;339312;29;906;-72
2022/05/06 00:12:28;;;;;;;;;;;;;;;;;;339308;29;815;-72
2022/05/06 00:12:39;;;;;;;;;;;;;;;;;;339313;29;918;-72
2022/05/06 00:12:49;;;;;;;;;;;;;;;;;;339281;29;934;-72
2022/05/06 00:12:59;;;;;;;;;;;;;;;;;;340244;29;1646;-72
2022/05/06 00:13:09;;;;;;;;;;;;;;;;;;340562;29;795;-72
2022/05/06 00:13:20;;;;;;;;;;;;;;;;;;340377;29;1133;-72
2022/05/06 00:13:31;;;;;;;;;;;;;;;;;;340617;29;973;-72
2022/05/06 00:13:41;;;;;;;;;;;;;;;;;;340534;29;930;-72
2022/05/06 00:13:52;;;;;;;;;;;;;;;;;;340616;29;926;-71
2022/05/06 00:14:02;;;;;;;;;;;;;;;;;;340632;29;988;-71
2022/05/06 00:14:12;;;;;;;;;;;;;;;;;;340663;29;791;-72
2022/05/06 00:14:23;;;;;;;;;;;;;;;;;;340625;29;913;-71
2022/05/06 00:14:34;;;;;;;;;;;;;;;;;;340581;29;938;-72
2022/05/06 00:14:46;;;;;;;;;;;;;;;;;;340622;29;875;-72
2022/05/06 00:14:56;;;;;;;;;;;;;;;;;;340495;29;863;-72
2022/05/06 00:15:08;;;;;;;;;;;;;;;;;;340606;29;981;-72
2022/05/06 00:15:19;;;;;;;;;;;;;;;;;;340517;29;965;-72
2022/05/06 00:15:29;;;;;;;;;;;;;;;;;;340436;29;1077;-72
2022/05/06 00:15:39;;;;;;;;;;;;;;;;;;340633;29;922;-72
2022/05/06 00:15:49;;;;;;;;;;;;;;;;;;340586;29;977;-72
2022/05/06 00:16:00;;;;;;;;;;;;;;;;;;340620;29;958;-72
2022/05/06 00:16:10;;;;;;;;;;;;;;;;;;340565;29;933;-72
2022/05/06 00:16:20;;;;;;;;;;;;;;;;;;340628;29;871;-71
2022/05/06 00:16:30;;;;;;;;;;;;;;;;;;340614;29;1009;-72
2022/05/06 00:16:40;;;;;;;;;;;;;;;;;;340629;29;819;-71
2022/05/06 00:16:51;;;;;;;;;;;;;;;;;;340617;29;914;-72
2022/05/06 00:17:05;;;;;;;;;;;;;;;;;;340452;29;995;-72
2022/05/06 00:17:15;;;;;;;;;;;;;;;;;;340619;29;795;-72
2022/05/06 00:17:25;;;;;;;;;;;;;;;;;;340579;29;934;-72
2022/05/06 00:17:36;;;;;;;;;;;;;;;;;;340477;29;1169;-72
2022/05/06 00:17:46;;;;;;;;;;;;;;;;;;340607;29;850;-71
2022/05/06 00:17:56;;;;;;;;;;;;;;;;;;340602;29;852;-72
2022/05/06 00:18:06;;;;;;;;;;;;;;;;;;340622;29;1005;-72
2022/05/06 00:18:18;;;;;;;;;;;;;;;;;;340593;29;950;-72
2022/05/06 00:18:28;;;;;;;;;;;;;;;;;;340607;29;930;-72
2022/05/06 00:18:38;;;;;;;;;;;;;;;;;;340628;29;868;-72
2022/05/06 00:18:49;;;;;;;;;;;;;;;;;;340549;29;981;-72
2022/05/06 00:18:59;;;;;;;;;;;;;;;;;;340615;29;1120;-72
2022/05/06 00:19:09;;;;;;;;;;;;;;;;;;340603;29;918;-72
2022/05/06 00:19:20;;;;;;;;;;;;;;;;;;340569;29;934;-72
2022/05/06 00:19:30;;;;;;;;;;;;;;;;;;340472;29;1142;-72
2022/05/06 00:19:45;;;;;;;;;;;;;;;;;;340608;29;946;-72
2022/05/06 00:19:55;;;;;;;;;;;;;;;;;;340560;29;1109;-72
2022/05/06 00:20:06;;;;;;;;;;;;;;;;;;340448;29;1030;-72
2022/05/06 00:20:16;;;;;;;;;;;;;;;;;;340346;29;1350;-72
2022/05/06 00:20:26;;;;;;;;;;;;;;;;;;340631;29;807;-72
2022/05/06 00:20:37;;;;;;;;;;;;;;;;;;340595;29;989;-72
2022/05/06 00:20:48;;;;;;;;;;;;;;;;;;340565;29;927;-72
2022/05/06 00:20:58;;;;;;;;;;;;;;;;;;340581;29;907;-71
2022/05/06 00:21:08;;;;;;;;;;;;;;;;;;340583;29;946;-72
2022/05/06 00:21:19;;;;;;;;;;;;;;;;;;340586;29;868;-72
2022/05/06 00:21:29;;;;;;;;;;;;;;;;;;340565;29;965;-72
2022/05/06 00:21:39;;;;;;;;;;;;;;;;;;340603;29;906;-72
2022/05/06 00:21:49;;;;;;;;;;;;;;;;;;340587;29;871;-72
2022/05/06 00:21:59;;;;;;;;;;;;;;;;;;340558;29;930;-72
2022/05/06 00:22:10;;;;;;;;;;;;;;;;;;340647;29;836;-72
2022/05/06 00:22:20;;;;;;;;;;;;;;;;;;340580;29;930;-72
2022/05/06 00:22:30;;;;;;;;;;;;;;;;;;340563;29;829;-72
2022/05/06 00:22:40;;;;;;;;;;;;;;;;;;340615;29;969;-72
2022/05/06 00:22:51;;;;;;;;;;;;;;;;;;340627;29;977;-72
2022/05/06 00:23:01;;;;;;;;;;;;;;;;;;339784;29;1895;-72
2022/05/06 00:23:11;;;;;;;;;;;;;;;;;;340591;29;917;-72
2022/05/06 00:23:21;;;;;;;;;;;;;;;;;;340570;29;808;-72
2022/05/06 00:23:31;;;;;;;;;;;;;;;;;;340219;29;1818;-72
2022/05/06 00:23:42;;;;;;;;;;;;;;;;;;340589;29;1419;-72
2022/05/06 00:23:52;;;;;;;;;;;;;;;;;;340611;29;929;-72
2022/05/06 00:24:03;;;;;;;;;;;;;;;;;;340517;29;1133;-72
2022/05/06 00:24:13;;;;;;;;;;;;;;;;;;340602;29;926;-72
2022/05/06 00:24:24;;;;;;;;;;;;;;;;;;340608;29;989;-72
2022/05/06 00:24:34;;;;;;;;;;;;;;;;;;340619;29;981;-72
2022/05/06 00:24:44;;;;;;;;;;;;;;;;;;340521;29;1028;-72
2022/05/06 00:24:54;;;;;;;;;;;;;;;;;;340631;29;831;-72
2022/05/06 00:25:05;;;;;;;;;;;;;;;;;;340597;29;874;-72
2022/05/06 00:25:15;;;;;;;;;;;;;;;;;;339774;29;1363;-72
2022/05/06 00:25:25;;;;;;;;;;;;;;;;;;339513;29;1529;-72
2022/05/06 00:25:35;;;;;;;;;;;;;;;;;;339229;29;874;-72
2022/05/06 00:25:46;;;;;;;;;;;;;;;;;;339233;29;953;-72
2022/05/06 00:25:56;;;;;;;;;;;;;;;;;;339301;29;907;-72
2022/05/06 00:26:07;;;;;;;;;;;;;;;;;;339307;29;918;-72
2022/05/06 00:26:17;;;;;;;;;;;;;;;;;;339216;29;958;-72
2022/05/06 00:26:28;;;;;;;;;;;;;;;;;;339334;29;827;-72
2022/05/06 00:26:38;;;;;;;;;;;;;;;;;;339182;29;926;-71
2022/05/06 00:26:48;;;;;;;;;;;;;;;;;;339314;29;910;-72
2022/05/06 00:26:59;;;;;;;;;;;;;;;;;;339288;29;805;-72
2022/05/06 00:27:09;;;;;;;;;;;;;;;;;;339236;29;932;-72
2022/05/06 00:27:19;;;;;;;;;;;;;;;;;;339306;29;906;-72
2022/05/06 00:27:29;;;;;;;;;;;;;;;;;;339284;29;954;-72
2022/05/06 00:27:43;;;;;;;;;;;;;;;;;;339288;29;918;-72
2022/05/06 00:27:54;;;;;;;;;;;;;;;;;;339071;29;780;-72
2022/05/06 00:28:04;;;;;;;;;;;;;;;;;;339264;29;930;-72
2022/05/06 00:28:16;;;;;;;;;;;;;;;;;;339287;29;1191;-72
2022/05/06 00:28:26;;;;;;;;;;;;;;;;;;339236;29;916;-72
2022/05/06 00:28:36;;;;;;;;;;;;;;;;;;339319;29;838;-72
2022/05/06 00:28:47;;;;;;;;;;;;;;;;;;339296;29;784;-72
2022/05/06 00:28:57;;;;;;;;;;;;;;;;;;339041;29;997;-72
2022/05/06 00:29:08;;;;;;;;;;;;;;;;;;338820;29;1361;-71
2022/05/06 00:29:18;;;;;;;;;;;;;;;;;;341206;29;1286;-72
2022/05/06 00:29:28;;;;;;;;;;;;;;;;;;341796;29;1380;-72
2022/05/06 00:29:38;;;;;;;;;;;;;;;;;;340793;29;1179;-72
2022/05/06 00:29:48;;;;;;;;;;;;;;;;;;340602;29;960;-72
2022/05/06 00:29:59;;;;;;;;;;;;;;;;;;340541;29;1017;-72
2022/05/06 00:30:09;;;;;;;;;;;;;;;;;;340621;29;973;-72
2022/05/06 00:30:20;;;;;;;;;;;;;;;;;;340573;29;1141;-72
2022/05/06 00:30:30;;;;;;;;;;;;;;;;;;340284;29;1739;-72
2022/05/06 00:30:41;;;;;;;;;;;;;;;;;;340540;29;1679;-72
2022/05/06 00:30:51;;;;;;;;;;;;;;;;;;340612;29;933;-71
2022/05/06 00:31:01;;;;;;;;;;;;;;;;;;340547;29;958;-72
2022/05/06 00:31:12;;;;;;;;;;;;;;;;;;340575;29;957;-72
2022/05/06 00:31:22;;;;;;;;;;;;;;;;;;340586;29;969;-72
2022/05/06 00:31:32;;;;;;;;;;;;;;;;;;340580;29;929;-71
2022/05/06 00:31:42;;;;;;;;;;;;;;;;;;340633;29;784;-72
2022/05/06 00:31:53;;;;;;;;;;;;;;;;;;340576;29;1040;-72
2022/05/06 00:32:03;;;;;;;;;;;;;;;;;;340551;29;885;-72
2022/05/06 00:32:13;;;;;;;;;;;;;;;;;;340404;29;914;-72
2022/05/06 00:32:23;;;;;;;;;;;;;;;;;;340371;29;933;-72
2022/05/06 00:32:34;;;;;;;;;;;;;;;;;;339283;29;1762;-71
2022/05/06 00:32:44;;;;;;;;;;;;;;;;;;339621;29;1758;-71
2022/05/06 00:32:54;;;;;;;;;;;;;;;;;;340013;29;1862;-71
2022/05/06 00:33:06;;;;;;;;;;;;;;;;;;340077;29;1778;-72
2022/05/06 00:33:17;;;;;;;;;;;;;;;;;;340583;29;984;-72
2022/05/06 00:33:27;;;;;;;;;;;;;;;;;;340181;29;1136;-72
2022/05/06 00:33:37;;;;;;;;;;;;;;;;;;340591;29;946;-72
2022/05/06 00:33:48;;;;;;;;;;;;;;;;;;340651;29;910;-72
2022/05/06 00:33:58;;;;;;;;;;;;;;;;;;340590;29;1021;-72
2022/05/06 00:34:10;;;;;;;;;;;;;;;;;;339524;29;1730;-72
2022/05/06 00:34:20;;;;;;;;;;;;;;;;;;339267;29;918;-72
2022/05/06 00:34:31;;;;;;;;;;;;;;;;;;339317;29;814;-72
2022/05/06 00:34:41;;;;;;;;;;;;;;;;;;339270;29;955;-72
2022/05/06 00:34:51;;;;;;;;;;;;;;;;;;339282;29;905;-72
2022/05/06 00:35:02;;;;;;;;;;;;;;;;;;339188;29;1076;-72
2022/05/06 00:35:12;;;;;;;;;;;;;;;;;;339001;29;942;-72
2022/05/06 00:35:22;;;;;;;;;;;;;;;;;;339270;29;819;-71
2022/05/06 00:35:32;;;;;;;;;;;;;;;;;;339294;29;969;-72
2022/05/06 00:35:42;;;;;;;;;;;;;;;;;;339249;29;1000;-72
2022/05/06 00:35:53;;;;;;;;;;;;;;;;;;339189;29;974;-72
2022/05/06 00:36:04;;;;;;;;;;;;;;;;;;339222;29;898;-72
2022/05/06 00:36:14;;;;;;;;;;;;;;;;;;339280;29;926;-72
2022/05/06 00:36:24;;;;;;;;;;;;;;;;;;339257;29;1206;-72
2022/05/06 00:36:35;;;;;;;;;;;;;;;;;;339278;29;937;-72
2022/05/06 00:36:45;;;;;;;;;;;;;;;;;;339199;29;837;-72
2022/05/06 00:36:55;;;;;;;;;;;;;;;;;;339283;29;1021;-72
2022/05/06 00:37:06;;;;;;;;;;;;;;;;;;339280;29;925;-72
2022/05/06 00:37:16;;;;;;;;;;;;;;;;;;339273;29;938;-71
2022/05/06 00:37:26;;;;;;;;;;;;;;;;;;339270;29;815;-72
2022/05/06 00:37:36;;;;;;;;;;;;;;;;;;339254;29;945;-72
2022/05/06 00:37:47;;;;;;;;;;;;;;;;;;339319;29;758;-72
2022/05/06 00:37:58;;;;;;;;;;;;;;;;;;339273;29;945;-72
2022/05/06 00:38:08;;;;;;;;;;;;;;;;;;339156;29;744;-72
2022/05/06 00:38:18;;;;;;;;;;;;;;;;;;339156;29;850;-72
2022/05/06 00:38:29;;;;;;;;;;;;;;;;;;339298;29;969;-72
2022/05/06 00:38:39;;;;;;;;;;;;;;;;;;339298;29;1001;-72
2022/05/06 00:38:49;;;;;;;;;;;;;;;;;;339259;29;857;-72
2022/05/06 00:38:59;;;;;;;;;;;;;;;;;;339228;29;962;-72
2022/05/06 00:39:10;;;;;;;;;;;;;;;;;;339276;29;1009;-72
2022/05/06 00:39:20;;;;;;;;;;;;;;;;;;339246;29;992;-72
2022/05/06 00:39:30;;;;;;;;;;;;;;;;;;339299;29;930;-72
2022/05/06 00:39:40;;;;;;;;;;;;;;;;;;339218;29;926;-72
2022/05/06 00:39:51;;;;;;;;;;;;;;;;;;339295;29;684;-72
2022/05/06 00:40:02;;;;;;;;;;;;;;;;;;339266;29;960;-72
2022/05/06 00:40:13;;;;;;;;;;;;;;;;;;339236;29;1009;-71
2022/05/06 00:40:24;;;;;;;;;;;;;;;;;;339187;29;988;-72
2022/05/06 00:40:35;;;;;;;;;;;;;;;;;;339189;29;1869;-72
2022/05/06 00:40:45;;;;;;;;;;;;;;;;;;340602;29;922;-72
2022/05/06 00:40:55;;;;;;;;;;;;;;;;;;340601;29;997;-72
2022/05/06 00:41:05;;;;;;;;;;;;;;;;;;340546;29;934;-72
2022/05/06 00:41:16;;;;;;;;;;;;;;;;;;340640;29;906;-72
2022/05/06 00:41:26;;;;;;;;;;;;;;;;;;340633;29;901;-72
2022/05/06 00:41:36;;;;;;;;;;;;;;;;;;340416;29;1170;-72
2022/05/06 00:41:46;;;;;;;;;;;;;;;;;;340554;29;953;-72
2022/05/06 00:41:56;;;;;;;;;;;;;;;;;;340589;29;1044;-72
2022/05/06 00:42:07;;;;;;;;;;;;;;;;;;340609;29;864;-72
2022/05/06 00:42:17;;;;;;;;;;;;;;;;;;340522;29;922;-72
2022/05/06 00:42:27;;;;;;;;;;;;;;;;;;340524;29;870;-72
2022/05/06 00:42:38;;;;;;;;;;;;;;;;;;340297;29;1766;-72
2022/05/06 00:42:50;;;;;;;;;;;;;;;;;;340605;29;985;-72
2022/05/06 00:43:00;;;;;;;;;;;;;;;;;;340544;29;1914;-72
2022/05/06 00:43:10;;;;;;;;;;;;;;;;;;340531;29;976;-72
2022/05/06 00:43:21;;;;;;;;;;;;;;;;;;340576;29;969;-72
2022/05/06 00:43:31;;;;;;;;;;;;;;;;;;340464;29;1284;-72
2022/05/06 00:43:42;;;;;;;;;;;;;;;;;;338897;29;1854;-72
2022/05/06 00:43:52;;;;;;;;;;;;;;;;;;339150;29;1564;-72
2022/05/06 00:44:06;;;;;;;;;;;;;;;;;;339317;29;891;-72
2022/05/06 00:44:17;;;;;;;;;;;;;;;;;;339070;29;923;-72
2022/05/06 00:44:27;;;;;;;;;;;;;;;;;;339214;29;973;-72
2022/05/06 00:44:37;;;;;;;;;;;;;;;;;;339219;29;1025;-72
2022/05/06 00:44:47;;;;;;;;;;;;;;;;;;339328;29;808;-72
2022/05/06 00:44:57;;;;;;;;;;;;;;;;;;339294;29;922;-72
2022/05/06 00:45:08;;;;;;;;;;;;;;;;;;339253;29;982;-72
2022/05/06 00:45:18;;;;;;;;;;;;;;;;;;339289;29;859;-72
2022/05/06 00:45:36;;;;;;;;;;;;;;;;;;339183;29;1013;-72
2022/05/06 00:45:52;;;;;;;;;;;;;;;;;;339276;29;934;-73
2022/05/06 00:46:03;;;;;;;;;;;;;;;;;;339255;29;922;-72
2022/05/06 00:46:15;;;;;;;;;;;;;;;;;;339235;29;800;-72
2022/05/06 00:46:26;;;;;;;;;;;;;;;;;;339176;29;1025;-73
2022/05/06 00:46:37;;;;;;;;;;;;;;;;;;339290;29;918;-73
2022/05/06 00:46:50;;;;;;;;;;;;;;;;;;339299;29;1001;-72
2022/05/06 00:47:01;;;;;;;;;;;;;;;;;;339288;29;887;-73
2022/05/06 00:47:13;;;;;;;;;;;;;;;;;;339305;29;954;-72
2022/05/06 00:47:24;;;;;;;;;;;;;;;;;;339316;29;862;-72
2022/05/06 00:47:34;;;;;;;;;;;;;;;;;;338896;29;926;-72
2022/05/06 00:47:45;;;;;;;;;;;;;;;;;;339214;29;919;-73
2022/05/06 00:47:56;;;;;;;;;;;;;;;;;;338818;29;1349;-72
2022/05/06 00:48:06;;;;;;;;;;;;;;;;;;339072;29;1482;-72
2022/05/06 00:48:16;;;;;;;;;;;;;;;;;;340566;29;974;-72
2022/05/06 00:48:27;;;;;;;;;;;;;;;;;;340237;29;993;-72
2022/05/06 00:48:40;;;;;;;;;;;;;;;;;;339207;29;1022;-73
2022/05/06 00:48:50;;;;;;;;;;;;;;;;;;339274;29;997;-72
2022/05/06 00:49:00;;;;;;;;;;;;;;;;;;339254;29;917;-72
2022/05/06 00:49:12;;;;;;;;;;;;;;;;;;339222;29;1017;-73
2022/05/06 00:49:22;;;;;;;;;;;;;;;;;;339290;29;942;-72
2022/05/06 00:49:33;;;;;;;;;;;;;;;;;;339260;29;930;-72
2022/05/06 00:49:43;;;;;;;;;;;;;;;;;;339298;29;907;-72
2022/05/06 00:49:53;;;;;;;;;;;;;;;;;;339246;29;809;-73
2022/05/06 00:50:04;;;;;;;;;;;;;;;;;;339280;29;910;-72
2022/05/06 00:50:15;;;;;;;;;;;;;;;;;;339249;29;1288;-73
2022/05/06 00:50:25;;;;;;;;;;;;;;;;;;339305;29;973;-73
2022/05/06 00:50:35;;;;;;;;;;;;;;;;;;339316;29;1787;-72
2022/05/06 00:50:46;;;;;;;;;;;;;;;;;;339199;29;1731;-73
2022/05/06 00:51:00;;;;;;;;;;;;;;;;;;339288;29;819;-73
2022/05/06 00:51:11;;;;;;;;;;;;;;;;;;339306;29;803;-73
2022/05/06 00:51:23;;;;;;;;;;;;;;;;;;339245;29;933;-72
2022/05/06 00:51:33;;;;;;;;;;;;;;;;;;339239;29;929;-72
2022/05/06 00:51:44;;;;;;;;;;;;;;;;;;339227;29;1017;-72
2022/05/06 00:51:54;;;;;;;;;;;;;;;;;;339262;29;933;-72
2022/05/06 00:52:05;;;;;;;;;;;;;;;;;;339187;29;998;-72
2022/05/06 00:52:16;;;;;;;;;;;;;;;;;;339322;29;919;-73
2022/05/06 00:52:27;;;;;;;;;;;;;;;;;;339302;29;811;-72
2022/05/06 00:52:37;;;;;;;;;;;;;;;;;;339249;29;992;-72
2022/05/06 00:52:47;;;;;;;;;;;;;;;;;;339163;29;997;-72
2022/05/06 00:52:57;;;;;;;;;;;;;;;;;;338900;29;1370;-72
2022/05/06 00:53:08;;;;;;;;;;;;;;;;;;339172;29;1343;-72
2022/05/06 00:53:18;;;;;;;;;;;;;;;;;;339160;29;835;-72
2022/05/06 00:53:28;;;;;;;;;;;;;;;;;;339244;29;776;-72
2022/05/06 00:53:39;;;;;;;;;;;;;;;;;;339243;29;1129;-72
2022/05/06 00:53:50;;;;;;;;;;;;;;;;;;339217;29;985;-72
2022/05/06 00:54:00;;;;;;;;;;;;;;;;;;339254;29;965;-72
2022/05/06 00:54:11;;;;;;;;;;;;;;;;;;339267;29;1050;-72
2022/05/06 00:54:23;;;;;;;;;;;;;;;;;;339092;29;855;-72
2022/05/06 00:54:34;;;;;;;;;;;;;;;;;;339273;29;775;-72
2022/05/06 00:54:45;;;;;;;;;;;;;;;;;;339246;29;908;-72
2022/05/06 00:54:55;;;;;;;;;;;;;;;;;;339181;29;970;-73
2022/05/06 00:55:06;;;;;;;;;;;;;;;;;;339251;29;828;-72
2022/05/06 00:55:16;;;;;;;;;;;;;;;;;;339243;29;1081;-72
2022/05/06 00:55:26;;;;;;;;;;;;;;;;;;339194;29;969;-72
2022/05/06 00:55:37;;;;;;;;;;;;;;;;;;339276;29;877;-73
2022/05/06 00:55:47;;;;;;;;;;;;;;;;;;339273;29;992;-72
2022/05/06 00:55:58;;;;;;;;;;;;;;;;;;339240;29;924;-73
2022/05/06 00:56:09;;;;;;;;;;;;;;;;;;339254;29;1000;-72
2022/05/06 00:56:24;;;;;;;;;;;;;;;;;;339216;29;754;-72
2022/05/06 00:56:34;;;;;;;;;;;;;;;;;;339083;29;898;-72
2022/05/06 00:56:46;;;;;;;;;;;;;;;;;;339230;29;758;-73
2022/05/06 00:56:56;;;;;;;;;;;;;;;;;;339106;29;953;-72
2022/05/06 00:57:07;;;;;;;;;;;;;;;;;;339766;29;1377;-72
2022/05/06 00:57:17;;;;;;;;;;;;;;;;;;341806;29;1341;-72
2022/05/06 00:57:27;;;;;;;;;;;;;;;;;;341885;29;893;-72
2022/05/06 00:57:38;;;;;;;;;;;;;;;;;;341868;29;782;-72
2022/05/06 00:57:48;;;;;;;;;;;;;;;;;;339482;29;1742;-72
2022/05/06 00:57:58;;;;;;;;;;;;;;;;;;339261;29;940;-72
2022/05/06 00:58:09;;;;;;;;;;;;;;;;;;339244;29;925;-72
2022/05/06 00:58:19;;;;;;;;;;;;;;;;;;339238;29;925;-73
2022/05/06 00:58:31;;;;;;;;;;;;;;;;;;339295;29;1038;-72
2022/05/06 00:58:43;;;;;;;;;;;;;;;;;;339242;29;988;-72
2022/05/06 00:58:53;;;;;;;;;;;;;;;;;;339270;29;996;-72
2022/05/06 00:59:03;;;;;;;;;;;;;;;;;;339158;29;996;-72
2022/05/06 00:59:13;;;;;;;;;;;;;;;;;;339212;29;921;-73
2022/05/06 00:59:24;;;;;;;;;;;;;;;;;;339258;29;798;-72
2022/05/06 01:00:17;;;;;;;;;;;;;;;;;;339272;29;886;-73
2022/05/06 01:00:19;;;;;;;;;;;;;;;;;;339240;29;940;-73
2022/05/06 01:00:29;;;;;;;;;;;;;;;;;;339247;29;889;-73
2022/05/06 01:00:40;;;;;;;;;;;;;;;;;;339181;29;1000;-72
2022/05/06 01:00:50;;;;;;;;;;;;;;;;;;339240;29;1017;-73
2022/05/06 01:01:01;;;;;;;;;;;;;;;;;;339147;29;857;-73
2022/05/06 01:01:11;;;;;;;;;;;;;;;;;;339290;29;1029;-72
2022/05/06 01:01:22;;;;;;;;;;;;;;;;;;339314;29;921;-73
2022/05/06 01:01:32;;;;;;;;;;;;;;;;;;339253;29;830;-72
2022/05/06 01:01:43;;;;;;;;;;;;;;;;;;339125;29;1093;-73
2022/05/06 01:01:53;;;;;;;;;;;;;;;;;;339192;29;977;-72
2022/05/06 01:02:04;;;;;;;;;;;;;;;;;;339279;29;838;-72
2022/05/06 01:02:14;;;;;;;;;;;;;;;;;;339271;29;929;-73
2022/05/06 01:02:24;;;;;;;;;;;;;;;;;;339282;29;968;-72
2022/05/06 01:02:34;;;;;;;;;;;;;;;;;;339341;29;787;-73
2022/05/06 01:02:45;;;;;;;;;;;;;;;;;;339159;29;921;-72
2022/05/06 01:02:55;;;;;;;;;;;;;;;;;;339254;29;996;-72
2022/05/06 01:03:06;;;;;;;;;;;;;;;;;;339131;29;1920;-72
2022/05/06 01:03:16;;;;;;;;;;;;;;;;;;339157;29;964;-73
2022/05/06 01:03:26;;;;;;;;;;;;;;;;;;339229;29;1071;-72
2022/05/06 01:03:36;;;;;;;;;;;;;;;;;;339256;29;898;-72
2022/05/06 01:03:47;;;;;;;;;;;;;;;;;;339201;29;1067;-72
2022/05/06 01:03:57;;;;;;;;;;;;;;;;;;339220;29;992;-73
2022/05/06 01:04:07;;;;;;;;;;;;;;;;;;339243;29;925;-72
2022/05/06 01:04:18;;;;;;;;;;;;;;;;;;339279;29;750;-72
2022/05/06 01:04:28;;;;;;;;;;;;;;;;;;339235;29;861;-73
2022/05/06 01:04:38;;;;;;;;;;;;;;;;;;339268;29;929;-73
2022/05/06 01:04:49;;;;;;;;;;;;;;;;;;339245;29;976;-72
2022/05/06 01:05:01;;;;;;;;;;;;;;;;;;339240;29;996;-72
2022/05/06 01:05:12;;;;;;;;;;;;;;;;;;339197;29;973;-73
2022/05/06 01:05:25;;;;;;;;;;;;;;;;;;339249;29;957;-72
2022/05/06 01:05:35;;;;;;;;;;;;;;;;;;339154;29;1000;-73
2022/05/06 01:05:45;;;;;;;;;;;;;;;;;;339197;29;945;-73
2022/05/06 01:05:55;;;;;;;;;;;;;;;;;;339215;29;984;-72
2022/05/06 01:06:10;;;;;;;;;;;;;;;;;;339247;29;865;-73
2022/05/06 01:06:21;;;;;;;;;;;;;;;;;;339228;29;794;-73
2022/05/06 01:06:31;;;;;;;;;;;;;;;;;;339281;29;1089;-72
2022/05/06 01:06:42;;;;;;;;;;;;;;;;;;338966;29;1402;-72
2022/05/06 01:06:53;;;;;;;;;;;;;;;;;;339526;29;1268;-72
2022/05/06 01:07:03;;;;;;;;;;;;;;;;;;340480;29;1578;-73
2022/05/06 01:07:13;;;;;;;;;;;;;;;;;;340074;29;1302;-72
2022/05/06 01:07:23;;;;;;;;;;;;;;;;;;338986;29;1063;-72
2022/05/06 01:07:34;;;;;;;;;;;;;;;;;;340275;29;1513;-73
2022/05/06 01:07:45;;;;;;;;;;;;;;;;;;340487;29;890;-73
2022/05/06 01:07:57;;;;;;;;;;;;;;;;;;339746;29;1696;-72
2022/05/06 01:08:08;;;;;;;;;;;;;;;;;;340449;29;942;-73
2022/05/06 01:08:19;;;;;;;;;;;;;;;;;;340484;29;1005;-72
2022/05/06 01:08:29;;;;;;;;;;;;;;;;;;340525;29;977;-72
2022/05/06 01:08:40;;;;;;;;;;;;;;;;;;340510;29;1017;-72
2022/05/06 01:08:51;;;;;;;;;;;;;;;;;;340501;29;930;-72
2022/05/06 01:09:01;;;;;;;;;;;;;;;;;;340520;29;1039;-72
2022/05/06 01:09:15;;;;;;;;;;;;;;;;;;340537;29;929;-72
2022/05/06 01:09:25;;;;;;;;;;;;;;;;;;340478;29;1123;-72
2022/05/06 01:09:36;;;;;;;;;;;;;;;;;;340598;29;906;-72
2022/05/06 01:09:49;;;;;;;;;;;;;;;;;;340538;29;756;-72
2022/05/06 01:09:59;;;;;;;;;;;;;;;;;;340548;29;799;-72
2022/05/06 01:10:10;;;;;;;;;;;;;;;;;;340541;29;961;-72
2022/05/06 01:10:21;;;;;;;;;;;;;;;;;;340549;29;976;-73
2022/05/06 01:10:31;;;;;;;;;;;;;;;;;;340549;29;937;-72
2022/05/06 01:10:42;;;;;;;;;;;;;;;;;;340539;29;969;-73
2022/05/06 01:10:52;;;;;;;;;;;;;;;;;;340489;29;1013;-72
2022/05/06 01:11:02;;;;;;;;;;;;;;;;;;340546;29;812;-73
2022/05/06 01:11:13;;;;;;;;;;;;;;;;;;340597;29;898;-72
2022/05/06 01:11:24;;;;;;;;;;;;;;;;;;340520;29;929;-72
2022/05/06 01:11:34;;;;;;;;;;;;;;;;;;340514;29;1004;-72
2022/05/06 01:11:44;;;;;;;;;;;;;;;;;;340557;29;862;-72
2022/05/06 01:11:55;;;;;;;;;;;;;;;;;;340483;29;917;-72
2022/05/06 01:12:05;;;;;;;;;;;;;;;;;;340389;29;996;-72
2022/05/06 01:12:15;;;;;;;;;;;;;;;;;;340520;29;980;-72
2022/05/06 01:12:26;;;;;;;;;;;;;;;;;;340560;29;933;-72
2022/05/06 01:12:36;;;;;;;;;;;;;;;;;;340575;29;780;-72
2022/05/06 01:12:47;;;;;;;;;;;;;;;;;;340515;29;910;-73
2022/05/06 01:12:57;;;;;;;;;;;;;;;;;;340517;29;965;-72
2022/05/06 01:13:07;;;;;;;;;;;;;;;;;;340515;29;925;-72
2022/05/06 01:13:21;;;;;;;;;;;;;;;;;;340358;29;1299;-73
2022/05/06 01:13:31;;;;;;;;;;;;;;;;;;340468;29;1032;-72
2022/05/06 01:13:43;;;;;;;;;;;;;;;;;;340547;29;790;-72
2022/05/06 01:13:55;;;;;;;;;;;;;;;;;;340469;29;989;-73
2022/05/06 01:14:06;;;;;;;;;;;;;;;;;;340538;29;890;-72
2022/05/06 01:14:35;;;;;;;;;;;;;;;;;;340518;29;832;-72
2022/05/06 01:14:45;;;;;;;;;;;;;;;;;;340535;29;837;-72
2022/05/06 01:14:55;;;;;;;;;;;;;;;;;;340537;29;988;-72
2022/05/06 01:15:22;;;;;;;;;;;;;;;;;;340530;29;842;-72
2022/05/06 01:15:32;;;;;;;;;;;;;;;;;;340546;29;985;-72
2022/05/06 01:15:42;;;;;;;;;;;;;;;;;;340492;29;953;-72
2022/05/06 01:15:56;;;;;;;;;;;;;;;;;;340512;29;788;-72
2022/05/06 01:16:06;;;;;;;;;;;;;;;;;;340540;29;988;-72
2022/05/06 01:16:16;;;;;;;;;;;;;;;;;;340517;29;925;-73
2022/05/06 01:16:31;;;;;;;;;;;;;;;;;;340541;29;965;-72
2022/05/06 01:16:42;;;;;;;;;;;;;;;;;;340526;29;1084;-72
2022/05/06 01:16:52;;;;;;;;;;;;;;;;;;340514;29;1040;-72
2022/05/06 01:17:03;;;;;;;;;;;;;;;;;;340499;29;957;-72
2022/05/06 01:17:14;;;;;;;;;;;;;;;;;;340568;29;945;-73